sensor_id;sensor_type;location;lat;lon;timestamp;P1;durP1;ratioP1;P2;durP2;ratioP2
52866;SDS011;38739;53.324;6.862;2022-08-21T00:01:16;11.07;;;5.03;;
52866;SDS011;38739;53.324;6.862;2022-08-21T00:03:45;10.03;;;5.47;;
52866;SDS011;38739;53.324;6.862;2022-08-21T00:06:11;11.55;;;5.50;;
52866;SDS011;38739;53.324;6.862;2022-08-21T00:08:37;10.02;;;5.30;;
52866;SDS011;38739;53.324;6.862;2022-08-21T00:11:03;11.68;;;5.47;;
52866;SDS011;38739;53.324;6.862;2022-08-21T00:13:29;13.32;;;5.93;;
52866;SDS011;38739;53.324;6.862;2022-08-21T00:15:57;10.68;;;6.13;;
52866;SDS011;38739;53.324;6.862;2022-08-21T00:18:23;12.57;;;5.82;;
52866;SDS011;38739;53.324;6.862;2022-08-21T00:20:49;11.35;;;5.70;;
52866;SDS011;38739;53.324;6.862;2022-08-21T00:23:15;10.10;;;5.72;;
52866;SDS011;38739;53.324;6.862;2022-08-21T00:25:42;9.35;;;6.13;;
52866;SDS011;38739;53.324;6.862;2022-08-21T00:28:09;11.63;;;6.03;;
52866;SDS011;38739;53.324;6.862;2022-08-21T00:30:36;8.80;;;5.88;;
52866;SDS011;38739;53.324;6.862;2022-08-21T00:33:02;13.13;;;5.82;;
52866;SDS011;38739;53.324;6.862;2022-08-21T00:35:39;12.18;;;5.88;;
52866;SDS011;38739;53.324;6.862;2022-08-21T00:38:06;10.93;;;6.45;;
52866;SDS011;38739;53.324;6.862;2022-08-21T00:40:53;9.70;;;6.25;;
52866;SDS011;38739;53.324;6.862;2022-08-21T00:43:23;9.55;;;6.28;;
52866;SDS011;38739;53.324;6.862;2022-08-21T00:45:53;11.32;;;6.53;;
52866;SDS011;38739;53.324;6.862;2022-08-21T00:48:20;11.70;;;6.30;;
52866;SDS011;38739;53.324;6.862;2022-08-21T00:50:48;12.57;;;7.13;;
52866;SDS011;38739;53.324;6.862;2022-08-21T00:53:20;11.32;;;6.43;;
52866;SDS011;38739;53.324;6.862;2022-08-21T00:55:47;14.43;;;6.88;;
52866;SDS011;38739;53.324;6.862;2022-08-21T00:58:13;10.15;;;6.15;;
52866;SDS011;38739;53.324;6.862;2022-08-21T01:00:41;12.73;;;6.50;;
52866;SDS011;38739;53.324;6.862;2022-08-21T01:03:11;10.32;;;6.63;;
52866;SDS011;38739;53.324;6.862;2022-08-21T01:05:40;13.27;;;7.10;;
52866;SDS011;38739;53.324;6.862;2022-08-21T01:08:06;12.70;;;7.07;;
52866;SDS011;38739;53.324;6.862;2022-08-21T01:10:33;10.60;;;7.00;;
52866;SDS011;38739;53.324;6.862;2022-08-21T01:13:00;18.20;;;8.38;;
52866;SDS011;38739;53.324;6.862;2022-08-21T01:15:29;13.63;;;7.68;;
52866;SDS011;38739;53.324;6.862;2022-08-21T01:17:58;11.25;;;6.90;;
52866;SDS011;38739;53.324;6.862;2022-08-21T01:20:24;11.70;;;7.30;;
52866;SDS011;38739;53.324;6.862;2022-08-21T01:22:50;16.00;;;8.27;;
52866;SDS011;38739;53.324;6.862;2022-08-21T01:25:16;12.02;;;7.65;;
52866;SDS011;38739;53.324;6.862;2022-08-21T01:27:45;14.82;;;7.88;;
52866;SDS011;38739;53.324;6.862;2022-08-21T01:30:13;13.02;;;7.93;;
52866;SDS011;38739;53.324;6.862;2022-08-21T01:32:48;16.90;;;9.13;;
52866;SDS011;38739;53.324;6.862;2022-08-21T01:35:14;18.05;;;8.98;;
52866;SDS011;38739;53.324;6.862;2022-08-21T01:37:42;14.85;;;8.88;;
52866;SDS011;38739;53.324;6.862;2022-08-21T01:40:09;14.77;;;8.95;;
52866;SDS011;38739;53.324;6.862;2022-08-21T01:42:35;13.77;;;8.40;;
52866;SDS011;38739;53.324;6.862;2022-08-21T01:45:01;14.25;;;8.63;;
52866;SDS011;38739;53.324;6.862;2022-08-21T01:47:28;14.68;;;8.35;;
52866;SDS011;38739;53.324;6.862;2022-08-21T01:49:54;13.70;;;7.82;;
52866;SDS011;38739;53.324;6.862;2022-08-21T01:52:20;13.02;;;7.43;;
52866;SDS011;38739;53.324;6.862;2022-08-21T01:54:45;18.15;;;7.47;;
52866;SDS011;38739;53.324;6.862;2022-08-21T01:57:11;12.30;;;7.07;;
52866;SDS011;38739;53.324;6.862;2022-08-21T01:59:38;13.55;;;6.85;;
52866;SDS011;38739;53.324;6.862;2022-08-21T02:02:04;13.25;;;6.57;;
52866;SDS011;38739;53.324;6.862;2022-08-21T02:04:31;14.02;;;6.70;;
52866;SDS011;38739;53.324;6.862;2022-08-21T02:06:57;12.15;;;6.57;;
52866;SDS011;38739;53.324;6.862;2022-08-21T02:09:24;12.88;;;6.00;;
52866;SDS011;38739;53.324;6.862;2022-08-21T02:11:50;10.90;;;5.68;;
52866;SDS011;38739;53.324;6.862;2022-08-21T02:14:17;12.15;;;6.00;;
52866;SDS011;38739;53.324;6.862;2022-08-21T02:16:43;8.48;;;5.25;;
52866;SDS011;38739;53.324;6.862;2022-08-21T02:19:10;15.43;;;5.53;;
52866;SDS011;38739;53.324;6.862;2022-08-21T02:21:37;10.55;;;5.28;;
52866;SDS011;38739;53.324;6.862;2022-08-21T02:24:03;10.73;;;5.65;;
52866;SDS011;38739;53.324;6.862;2022-08-21T02:26:29;12.38;;;6.45;;
52866;SDS011;38739;53.324;6.862;2022-08-21T02:28:55;12.02;;;5.72;;
52866;SDS011;38739;53.324;6.862;2022-08-21T02:31:20;13.75;;;4.80;;
52866;SDS011;38739;53.324;6.862;2022-08-21T02:33:46;16.02;;;6.10;;
52866;SDS011;38739;53.324;6.862;2022-08-21T02:36:12;15.60;;;6.20;;
52866;SDS011;38739;53.324;6.862;2022-08-21T02:38:39;10.13;;;4.63;;
52866;SDS011;38739;53.324;6.862;2022-08-21T02:41:07;12.20;;;5.55;;
52866;SDS011;38739;53.324;6.862;2022-08-21T02:43:35;8.27;;;5.30;;
52866;SDS011;38739;53.324;6.862;2022-08-21T02:46:00;14.68;;;6.03;;
52866;SDS011;38739;53.324;6.862;2022-08-21T02:48:29;10.70;;;5.38;;
52866;SDS011;38739;53.324;6.862;2022-08-21T02:50:58;13.95;;;5.18;;
52866;SDS011;38739;53.324;6.862;2022-08-21T02:53:26;9.85;;;4.90;;
52866;SDS011;38739;53.324;6.862;2022-08-21T02:55:53;8.40;;;5.28;;
52866;SDS011;38739;53.324;6.862;2022-08-21T02:58:20;12.65;;;5.13;;
52866;SDS011;38739;53.324;6.862;2022-08-21T03:00:49;11.00;;;5.20;;
52866;SDS011;38739;53.324;6.862;2022-08-21T03:03:15;14.10;;;5.47;;
52866;SDS011;38739;53.324;6.862;2022-08-21T03:05:41;9.98;;;5.50;;
52866;SDS011;38739;53.324;6.862;2022-08-21T03:08:08;12.40;;;5.75;;
52866;SDS011;38739;53.324;6.862;2022-08-21T03:10:37;13.02;;;5.88;;
52866;SDS011;38739;53.324;6.862;2022-08-21T03:13:07;12.47;;;5.37;;
52866;SDS011;38739;53.324;6.862;2022-08-21T03:15:33;14.13;;;5.90;;
52866;SDS011;38739;53.324;6.862;2022-08-21T03:17:59;13.85;;;6.47;;
52866;SDS011;38739;53.324;6.862;2022-08-21T03:20:27;11.57;;;5.93;;
52866;SDS011;38739;53.324;6.862;2022-08-21T03:22:53;12.93;;;6.15;;
52866;SDS011;38739;53.324;6.862;2022-08-21T03:25:21;12.20;;;6.00;;
52866;SDS011;38739;53.324;6.862;2022-08-21T03:27:47;12.45;;;5.90;;
52866;SDS011;38739;53.324;6.862;2022-08-21T03:30:14;12.38;;;5.78;;
52866;SDS011;38739;53.324;6.862;2022-08-21T03:32:41;12.13;;;5.82;;
52866;SDS011;38739;53.324;6.862;2022-08-21T03:35:07;12.75;;;6.50;;
52866;SDS011;38739;53.324;6.862;2022-08-21T03:37:34;11.95;;;5.93;;
52866;SDS011;38739;53.324;6.862;2022-08-21T03:39:59;14.52;;;6.43;;
52866;SDS011;38739;53.324;6.862;2022-08-21T03:42:25;14.45;;;6.30;;
52866;SDS011;38739;53.324;6.862;2022-08-21T03:44:51;12.50;;;6.63;;
52866;SDS011;38739;53.324;6.862;2022-08-21T03:47:16;12.93;;;6.50;;
52866;SDS011;38739;53.324;6.862;2022-08-21T03:49:42;16.98;;;6.50;;
52866;SDS011;38739;53.324;6.862;2022-08-21T03:52:08;13.55;;;6.13;;
52866;SDS011;38739;53.324;6.862;2022-08-21T03:54:34;12.07;;;6.65;;
52866;SDS011;38739;53.324;6.862;2022-08-21T03:56:59;16.50;;;6.63;;
52866;SDS011;38739;53.324;6.862;2022-08-21T03:59:25;13.57;;;6.30;;
52866;SDS011;38739;53.324;6.862;2022-08-21T04:01:52;16.55;;;6.97;;
52866;SDS011;38739;53.324;6.862;2022-08-21T04:04:22;15.30;;;6.90;;
52866;SDS011;38739;53.324;6.862;2022-08-21T04:06:49;11.13;;;6.60;;
52866;SDS011;38739;53.324;6.862;2022-08-21T04:09:15;13.00;;;6.25;;
52866;SDS011;38739;53.324;6.862;2022-08-21T04:11:41;12.63;;;6.55;;
52866;SDS011;38739;53.324;6.862;2022-08-21T04:14:07;16.45;;;6.82;;
52866;SDS011;38739;53.324;6.862;2022-08-21T04:16:33;15.70;;;6.60;;
52866;SDS011;38739;53.324;6.862;2022-08-21T04:19:00;13.52;;;6.40;;
52866;SDS011;38739;53.324;6.862;2022-08-21T04:21:26;14.43;;;6.53;;
52866;SDS011;38739;53.324;6.862;2022-08-21T04:23:56;12.30;;;6.35;;
52866;SDS011;38739;53.324;6.862;2022-08-21T04:26:22;9.80;;;6.07;;
52866;SDS011;38739;53.324;6.862;2022-08-21T04:28:48;13.32;;;6.55;;
52866;SDS011;38739;53.324;6.862;2022-08-21T04:31:13;11.43;;;5.65;;
52866;SDS011;38739;53.324;6.862;2022-08-21T04:33:39;11.38;;;6.20;;
52866;SDS011;38739;53.324;6.862;2022-08-21T04:36:05;12.75;;;6.00;;
52866;SDS011;38739;53.324;6.862;2022-08-21T04:38:32;13.13;;;6.18;;
52866;SDS011;38739;53.324;6.862;2022-08-21T04:40:58;12.35;;;6.32;;
52866;SDS011;38739;53.324;6.862;2022-08-21T04:43:24;11.82;;;6.28;;
52866;SDS011;38739;53.324;6.862;2022-08-21T04:45:50;14.85;;;6.60;;
52866;SDS011;38739;53.324;6.862;2022-08-21T04:48:17;11.15;;;6.65;;
52866;SDS011;38739;53.324;6.862;2022-08-21T04:53:30;12.00;;;6.00;;
52866;SDS011;38739;53.324;6.862;2022-08-21T04:56:01;14.55;;;6.45;;
52866;SDS011;38739;53.324;6.862;2022-08-21T04:58:30;13.48;;;6.60;;
52866;SDS011;38739;53.324;6.862;2022-08-21T05:00:58;10.27;;;5.78;;
52866;SDS011;38739;53.324;6.862;2022-08-21T05:03:25;11.88;;;5.95;;
52866;SDS011;38739;53.324;6.862;2022-08-21T05:05:51;13.27;;;6.10;;
52866;SDS011;38739;53.324;6.862;2022-08-21T05:08:18;11.50;;;6.00;;
52866;SDS011;38739;53.324;6.862;2022-08-21T05:10:46;12.23;;;5.82;;
52866;SDS011;38739;53.324;6.862;2022-08-21T05:13:12;12.95;;;5.80;;
52866;SDS011;38739;53.324;6.862;2022-08-21T05:15:39;11.27;;;5.90;;
52866;SDS011;38739;53.324;6.862;2022-08-21T05:18:05;11.43;;;6.30;;
52866;SDS011;38739;53.324;6.862;2022-08-21T05:20:31;13.52;;;5.78;;
52866;SDS011;38739;53.324;6.862;2022-08-21T05:22:59;11.52;;;5.55;;
52866;SDS011;38739;53.324;6.862;2022-08-21T05:25:25;14.00;;;6.13;;
52866;SDS011;38739;53.324;6.862;2022-08-21T05:27:52;11.02;;;5.15;;
52866;SDS011;38739;53.324;6.862;2022-08-21T05:30:18;10.00;;;5.28;;
52866;SDS011;38739;53.324;6.862;2022-08-21T05:32:45;11.13;;;5.50;;
52866;SDS011;38739;53.324;6.862;2022-08-21T05:35:11;10.55;;;5.30;;
52866;SDS011;38739;53.324;6.862;2022-08-21T05:37:37;8.52;;;4.80;;
52866;SDS011;38739;53.324;6.862;2022-08-21T05:40:03;11.07;;;5.00;;
52866;SDS011;38739;53.324;6.862;2022-08-21T05:42:30;10.38;;;5.13;;
52866;SDS011;38739;53.324;6.862;2022-08-21T05:44:56;12.02;;;5.03;;
52866;SDS011;38739;53.324;6.862;2022-08-21T05:47:21;11.00;;;5.45;;
52866;SDS011;38739;53.324;6.862;2022-08-21T05:49:47;12.05;;;5.55;;
52866;SDS011;38739;53.324;6.862;2022-08-21T05:52:17;11.15;;;5.47;;
52866;SDS011;38739;53.324;6.862;2022-08-21T05:54:45;14.63;;;6.55;;
52866;SDS011;38739;53.324;6.862;2022-08-21T05:57:10;12.77;;;5.82;;
52866;SDS011;38739;53.324;6.862;2022-08-21T05:59:36;11.77;;;5.32;;
52866;SDS011;38739;53.324;6.862;2022-08-21T06:02:03;12.55;;;5.55;;
52866;SDS011;38739;53.324;6.862;2022-08-21T06:04:29;12.75;;;5.38;;
52866;SDS011;38739;53.324;6.862;2022-08-21T06:06:55;16.38;;;5.88;;
52866;SDS011;38739;53.324;6.862;2022-08-21T06:09:20;13.15;;;5.30;;
52866;SDS011;38739;53.324;6.862;2022-08-21T06:11:46;21.70;;;6.18;;
52866;SDS011;38739;53.324;6.862;2022-08-21T06:14:15;16.48;;;5.75;;
52866;SDS011;38739;53.324;6.862;2022-08-21T06:16:41;13.40;;;5.45;;
52866;SDS011;38739;53.324;6.862;2022-08-21T06:19:07;14.57;;;5.72;;
52866;SDS011;38739;53.324;6.862;2022-08-21T06:21:33;12.55;;;5.40;;
52866;SDS011;38739;53.324;6.862;2022-08-21T06:23:58;10.88;;;5.50;;
52866;SDS011;38739;53.324;6.862;2022-08-21T06:26:24;11.52;;;5.70;;
52866;SDS011;38739;53.324;6.862;2022-08-21T06:28:50;11.70;;;5.80;;
52866;SDS011;38739;53.324;6.862;2022-08-21T06:31:17;12.30;;;5.20;;
52866;SDS011;38739;53.324;6.862;2022-08-21T06:33:46;13.02;;;5.82;;
52866;SDS011;38739;53.324;6.862;2022-08-21T06:36:12;11.85;;;5.47;;
52866;SDS011;38739;53.324;6.862;2022-08-21T06:38:38;14.57;;;5.65;;
52866;SDS011;38739;53.324;6.862;2022-08-21T06:41:05;13.10;;;5.53;;
52866;SDS011;38739;53.324;6.862;2022-08-21T06:43:32;11.18;;;5.50;;
52866;SDS011;38739;53.324;6.862;2022-08-21T06:45:57;14.10;;;5.90;;
52866;SDS011;38739;53.324;6.862;2022-08-21T06:48:23;12.75;;;5.80;;
52866;SDS011;38739;53.324;6.862;2022-08-21T06:50:49;13.38;;;5.78;;
52866;SDS011;38739;53.324;6.862;2022-08-21T06:53:17;14.05;;;5.80;;
52866;SDS011;38739;53.324;6.862;2022-08-21T06:55:44;12.68;;;5.82;;
52866;SDS011;38739;53.324;6.862;2022-08-21T06:58:11;12.02;;;5.40;;
52866;SDS011;38739;53.324;6.862;2022-08-21T07:00:44;13.38;;;6.40;;
52866;SDS011;38739;53.324;6.862;2022-08-21T07:03:21;12.93;;;5.20;;
52866;SDS011;38739;53.324;6.862;2022-08-21T07:05:47;14.20;;;5.47;;
52866;SDS011;38739;53.324;6.862;2022-08-21T07:08:13;12.25;;;5.28;;
52866;SDS011;38739;53.324;6.862;2022-08-21T07:10:39;13.65;;;5.22;;
52866;SDS011;38739;53.324;6.862;2022-08-21T07:13:04;14.75;;;5.18;;
52866;SDS011;38739;53.324;6.862;2022-08-21T07:15:30;13.43;;;4.90;;
52866;SDS011;38739;53.324;6.862;2022-08-21T07:17:57;12.32;;;4.63;;
52866;SDS011;38739;53.324;6.862;2022-08-21T07:20:23;12.02;;;4.15;;
52866;SDS011;38739;53.324;6.862;2022-08-21T07:22:49;14.10;;;4.65;;
52866;SDS011;38739;53.324;6.862;2022-08-21T07:25:16;11.20;;;4.70;;
52866;SDS011;38739;53.324;6.862;2022-08-21T07:27:41;11.80;;;4.43;;
52866;SDS011;38739;53.324;6.862;2022-08-21T07:30:07;10.60;;;3.83;;
52866;SDS011;38739;53.324;6.862;2022-08-21T07:32:33;10.75;;;4.38;;
52866;SDS011;38739;53.324;6.862;2022-08-21T07:34:59;9.77;;;3.55;;
52866;SDS011;38739;53.324;6.862;2022-08-21T07:37:24;9.07;;;3.40;;
52866;SDS011;38739;53.324;6.862;2022-08-21T07:39:50;10.68;;;3.58;;
52866;SDS011;38739;53.324;6.862;2022-08-21T07:42:16;10.60;;;3.20;;
52866;SDS011;38739;53.324;6.862;2022-08-21T07:44:42;9.07;;;3.08;;
52866;SDS011;38739;53.324;6.862;2022-08-21T07:47:08;7.30;;;2.92;;
52866;SDS011;38739;53.324;6.862;2022-08-21T07:49:34;13.10;;;3.00;;
52866;SDS011;38739;53.324;6.862;2022-08-21T07:52:00;7.22;;;2.20;;
52866;SDS011;38739;53.324;6.862;2022-08-21T07:54:26;8.45;;;2.83;;
52866;SDS011;38739;53.324;6.862;2022-08-21T07:56:51;11.68;;;2.60;;
52866;SDS011;38739;53.324;6.862;2022-08-21T07:59:17;9.70;;;2.72;;
52866;SDS011;38739;53.324;6.862;2022-08-21T08:01:43;10.80;;;2.45;;
52866;SDS011;38739;53.324;6.862;2022-08-21T08:04:09;9.23;;;2.40;;
52866;SDS011;38739;53.324;6.862;2022-08-21T08:06:34;8.98;;;2.40;;
52866;SDS011;38739;53.324;6.862;2022-08-21T08:09:00;9.07;;;2.30;;
52866;SDS011;38739;53.324;6.862;2022-08-21T08:11:28;8.52;;;2.45;;
52866;SDS011;38739;53.324;6.862;2022-08-21T08:13:54;8.93;;;2.10;;
52866;SDS011;38739;53.324;6.862;2022-08-21T08:16:22;10.48;;;2.33;;
52866;SDS011;38739;53.324;6.862;2022-08-21T08:18:47;10.63;;;2.97;;
52866;SDS011;38739;53.324;6.862;2022-08-21T08:21:13;8.52;;;2.17;;
52866;SDS011;38739;53.324;6.862;2022-08-21T08:23:39;10.23;;;2.15;;
52866;SDS011;38739;53.324;6.862;2022-08-21T08:26:05;7.60;;;2.63;;
52866;SDS011;38739;53.324;6.862;2022-08-21T08:28:31;10.23;;;2.75;;
52866;SDS011;38739;53.324;6.862;2022-08-21T08:30:58;9.00;;;2.50;;
52866;SDS011;38739;53.324;6.862;2022-08-21T08:33:25;8.63;;;2.53;;
52866;SDS011;38739;53.324;6.862;2022-08-21T08:35:51;9.25;;;2.20;;
52866;SDS011;38739;53.324;6.862;2022-08-21T08:38:18;9.63;;;2.50;;
52866;SDS011;38739;53.324;6.862;2022-08-21T08:40:47;10.23;;;2.55;;
52866;SDS011;38739;53.324;6.862;2022-08-21T08:43:33;14.55;;;3.05;;
52866;SDS011;38739;53.324;6.862;2022-08-21T08:46:01;5.97;;;2.17;;
52866;SDS011;38739;53.324;6.862;2022-08-21T08:48:32;6.68;;;2.55;;
52866;SDS011;38739;53.324;6.862;2022-08-21T08:54:36;7.45;;;2.00;;
52866;SDS011;38739;53.324;6.862;2022-08-21T08:57:09;9.88;;;2.40;;
52866;SDS011;38739;53.324;6.862;2022-08-21T08:59:51;7.95;;;1.80;;
52866;SDS011;38739;53.324;6.862;2022-08-21T09:02:20;7.38;;;1.92;;
52866;SDS011;38739;53.324;6.862;2022-08-21T09:04:48;9.43;;;1.83;;
52866;SDS011;38739;53.324;6.862;2022-08-21T09:17:48;7.07;;;1.98;;
52866;SDS011;38739;53.324;6.862;2022-08-21T09:21:18;8.32;;;2.00;;
52866;SDS011;38739;53.324;6.862;2022-08-21T09:23:43;9.70;;;2.00;;
52866;SDS011;38739;53.324;6.862;2022-08-21T09:26:22;8.75;;;2.20;;
52866;SDS011;38739;53.324;6.862;2022-08-21T09:28:56;7.03;;;1.65;;
52866;SDS011;38739;53.324;6.862;2022-08-21T09:31:33;4.63;;;1.40;;
52866;SDS011;38739;53.324;6.862;2022-08-21T09:34:04;8.40;;;2.38;;
52866;SDS011;38739;53.324;6.862;2022-08-21T09:36:43;8.20;;;2.10;;
52866;SDS011;38739;53.324;6.862;2022-08-21T09:39:11;10.63;;;2.30;;
52866;SDS011;38739;53.324;6.862;2022-08-21T09:41:46;9.05;;;2.05;;
52866;SDS011;38739;53.324;6.862;2022-08-21T09:44:31;10.27;;;2.30;;
52866;SDS011;38739;53.324;6.862;2022-08-21T09:47:01;8.95;;;2.17;;
52866;SDS011;38739;53.324;6.862;2022-08-21T09:49:28;5.80;;;1.80;;
52866;SDS011;38739;53.324;6.862;2022-08-21T09:51:55;7.28;;;2.00;;
52866;SDS011;38739;53.324;6.862;2022-08-21T09:54:26;7.50;;;1.90;;
52866;SDS011;38739;53.324;6.862;2022-08-21T09:59:43;6.55;;;1.77;;
52866;SDS011;38739;53.324;6.862;2022-08-21T10:02:30;8.80;;;2.85;;
52866;SDS011;38739;53.324;6.862;2022-08-21T10:05:01;9.98;;;2.58;;
52866;SDS011;38739;53.324;6.862;2022-08-21T10:07:29;9.27;;;2.20;;
52866;SDS011;38739;53.324;6.862;2022-08-21T10:12:32;7.25;;;2.00;;
52866;SDS011;38739;53.324;6.862;2022-08-21T10:15:13;8.30;;;2.10;;
52866;SDS011;38739;53.324;6.862;2022-08-21T10:17:52;8.13;;;1.83;;
52866;SDS011;38739;53.324;6.862;2022-08-21T10:23:27;7.90;;;1.98;;
52866;SDS011;38739;53.324;6.862;2022-08-21T10:25:57;9.40;;;2.30;;
52866;SDS011;38739;53.324;6.862;2022-08-21T10:28:33;6.97;;;1.95;;
52866;SDS011;38739;53.324;6.862;2022-08-21T10:31:33;9.05;;;1.92;;
52866;SDS011;38739;53.324;6.862;2022-08-21T10:34:14;8.32;;;2.40;;
52866;SDS011;38739;53.324;6.862;2022-08-21T10:48:18;7.63;;;2.30;;
52866;SDS011;38739;53.324;6.862;2022-08-21T10:51:10;6.40;;;2.05;;
52866;SDS011;38739;53.324;6.862;2022-08-21T10:53:47;10.25;;;2.10;;
52866;SDS011;38739;53.324;6.862;2022-08-21T10:56:38;7.32;;;2.00;;
52866;SDS011;38739;53.324;6.862;2022-08-21T11:02:00;6.40;;;1.73;;
52866;SDS011;38739;53.324;6.862;2022-08-21T11:04:54;7.65;;;1.77;;
52866;SDS011;38739;53.324;6.862;2022-08-21T11:07:34;8.40;;;1.80;;
52866;SDS011;38739;53.324;6.862;2022-08-21T11:10:13;15.10;;;2.53;;
52866;SDS011;38739;53.324;6.862;2022-08-21T11:12:53;6.85;;;2.20;;
52866;SDS011;38739;53.324;6.862;2022-08-21T11:15:30;10.82;;;1.88;;
52866;SDS011;38739;53.324;6.862;2022-08-21T11:18:09;6.60;;;2.20;;
52866;SDS011;38739;53.324;6.862;2022-08-21T11:20:42;6.07;;;1.75;;
52866;SDS011;38739;53.324;6.862;2022-08-21T11:26:17;6.32;;;1.80;;
52866;SDS011;38739;53.324;6.862;2022-08-21T11:29:02;7.85;;;1.83;;
52866;SDS011;38739;53.324;6.862;2022-08-21T11:39:26;7.80;;;1.80;;
52866;SDS011;38739;53.324;6.862;2022-08-21T11:50:43;6.95;;;1.50;;
52866;SDS011;38739;53.324;6.862;2022-08-21T11:59:00;6.68;;;1.70;;
52866;SDS011;38739;53.324;6.862;2022-08-21T12:01:33;7.72;;;1.77;;
52866;SDS011;38739;53.324;6.862;2022-08-21T12:04:09;7.95;;;1.70;;
52866;SDS011;38739;53.324;6.862;2022-08-21T12:06:42;7.60;;;1.73;;
52866;SDS011;38739;53.324;6.862;2022-08-21T12:09:10;5.78;;;1.30;;
52866;SDS011;38739;53.324;6.862;2022-08-21T12:11:50;4.50;;;1.60;;
52866;SDS011;38739;53.324;6.862;2022-08-21T12:14:34;6.53;;;1.73;;
52866;SDS011;38739;53.324;6.862;2022-08-21T12:17:15;4.45;;;1.30;;
52866;SDS011;38739;53.324;6.862;2022-08-21T12:19:59;5.60;;;1.67;;
52866;SDS011;38739;53.324;6.862;2022-08-21T12:22:41;6.63;;;1.63;;
52866;SDS011;38739;53.324;6.862;2022-08-21T12:25:17;6.65;;;1.80;;
52866;SDS011;38739;53.324;6.862;2022-08-21T12:35:46;5.10;;;1.67;;
52866;SDS011;38739;53.324;6.862;2022-08-21T12:38:22;8.57;;;2.33;;
52866;SDS011;38739;53.324;6.862;2022-08-21T12:40:56;6.68;;;1.92;;
52866;SDS011;38739;53.324;6.862;2022-08-21T12:43:35;6.32;;;2.00;;
52866;SDS011;38739;53.324;6.862;2022-08-21T12:46:01;5.40;;;1.90;;
52866;SDS011;38739;53.324;6.862;2022-08-21T12:48:39;6.22;;;2.20;;
52866;SDS011;38739;53.324;6.862;2022-08-21T12:51:17;5.83;;;1.90;;
52866;SDS011;38739;53.324;6.862;2022-08-21T12:56:18;10.40;;;2.03;;
52866;SDS011;38739;53.324;6.862;2022-08-21T12:58:47;8.73;;;2.05;;
52866;SDS011;38739;53.324;6.862;2022-08-21T13:01:21;8.95;;;2.10;;
52866;SDS011;38739;53.324;6.862;2022-08-21T13:03:52;8.38;;;2.20;;
52866;SDS011;38739;53.324;6.862;2022-08-21T13:06:20;6.10;;;1.77;;
52866;SDS011;38739;53.324;6.862;2022-08-21T13:08:49;4.65;;;1.90;;
52866;SDS011;38739;53.324;6.862;2022-08-21T13:11:19;7.10;;;1.90;;
52866;SDS011;38739;53.324;6.862;2022-08-21T13:13:51;6.88;;;2.00;;
52866;SDS011;38739;53.324;6.862;2022-08-21T13:16:25;6.45;;;1.40;;
52866;SDS011;38739;53.324;6.862;2022-08-21T13:21:21;7.05;;;1.30;;
52866;SDS011;38739;53.324;6.862;2022-08-21T13:23:53;4.90;;;1.50;;
52866;SDS011;38739;53.324;6.862;2022-08-21T13:26:20;4.05;;;1.40;;
52866;SDS011;38739;53.324;6.862;2022-08-21T13:28:47;4.80;;;1.45;;
52866;SDS011;38739;53.324;6.862;2022-08-21T13:31:27;5.63;;;1.60;;
52866;SDS011;38739;53.324;6.862;2022-08-21T13:33:56;6.95;;;1.40;;
52866;SDS011;38739;53.324;6.862;2022-08-21T13:36:26;4.40;;;1.35;;
52866;SDS011;38739;53.324;6.862;2022-08-21T13:38:56;4.25;;;1.35;;
52866;SDS011;38739;53.324;6.862;2022-08-21T13:41:23;8.48;;;1.70;;
52866;SDS011;38739;53.324;6.862;2022-08-21T13:44:03;6.30;;;1.50;;
52866;SDS011;38739;53.324;6.862;2022-08-21T13:46:31;6.40;;;1.70;;
52866;SDS011;38739;53.324;6.862;2022-08-21T13:49:01;6.90;;;1.88;;
52866;SDS011;38739;53.324;6.862;2022-08-21T13:51:30;5.25;;;1.40;;
52866;SDS011;38739;53.324;6.862;2022-08-21T13:53:56;5.63;;;1.50;;
52866;SDS011;38739;53.324;6.862;2022-08-21T13:56:27;6.35;;;1.60;;
52866;SDS011;38739;53.324;6.862;2022-08-21T13:58:58;5.95;;;1.60;;
52866;SDS011;38739;53.324;6.862;2022-08-21T14:01:26;5.93;;;2.00;;
52866;SDS011;38739;53.324;6.862;2022-08-21T14:04:02;5.45;;;1.75;;
52866;SDS011;38739;53.324;6.862;2022-08-21T14:06:33;7.93;;;1.50;;
52866;SDS011;38739;53.324;6.862;2022-08-21T14:09:03;5.28;;;1.73;;
52866;SDS011;38739;53.324;6.862;2022-08-21T14:11:38;5.85;;;1.90;;
52866;SDS011;38739;53.324;6.862;2022-08-21T14:14:18;9.50;;;2.40;;
52866;SDS011;38739;53.324;6.862;2022-08-21T14:16:53;7.07;;;1.95;;
52866;SDS011;38739;53.324;6.862;2022-08-21T14:19:26;9.65;;;2.22;;
52866;SDS011;38739;53.324;6.862;2022-08-21T14:22:00;5.80;;;1.60;;
52866;SDS011;38739;53.324;6.862;2022-08-21T14:24:27;4.82;;;1.65;;
52866;SDS011;38739;53.324;6.862;2022-08-21T14:27:02;7.20;;;1.80;;
52866;SDS011;38739;53.324;6.862;2022-08-21T14:29:39;7.97;;;1.88;;
52866;SDS011;38739;53.324;6.862;2022-08-21T14:32:18;7.22;;;1.70;;
52866;SDS011;38739;53.324;6.862;2022-08-21T14:34:47;6.43;;;1.63;;
52866;SDS011;38739;53.324;6.862;2022-08-21T14:37:13;5.03;;;1.85;;
52866;SDS011;38739;53.324;6.862;2022-08-21T14:39:38;6.47;;;1.90;;
52866;SDS011;38739;53.324;6.862;2022-08-21T14:42:04;5.85;;;1.60;;
52866;SDS011;38739;53.324;6.862;2022-08-21T14:44:30;6.68;;;1.65;;
52866;SDS011;38739;53.324;6.862;2022-08-21T14:46:58;6.38;;;2.00;;
52866;SDS011;38739;53.324;6.862;2022-08-21T14:49:24;7.90;;;1.77;;
52866;SDS011;38739;53.324;6.862;2022-08-21T14:51:53;8.50;;;2.50;;
52866;SDS011;38739;53.324;6.862;2022-08-21T14:54:22;7.53;;;1.85;;
52866;SDS011;38739;53.324;6.862;2022-08-21T14:56:49;7.32;;;1.90;;
52866;SDS011;38739;53.324;6.862;2022-08-21T14:59:15;6.70;;;1.60;;
52866;SDS011;38739;53.324;6.862;2022-08-21T15:01:41;5.88;;;1.90;;
52866;SDS011;38739;53.324;6.862;2022-08-21T15:04:07;6.47;;;1.75;;
52866;SDS011;38739;53.324;6.862;2022-08-21T15:06:32;8.75;;;2.25;;
52866;SDS011;38739;53.324;6.862;2022-08-21T15:08:58;7.05;;;1.42;;
52866;SDS011;38739;53.324;6.862;2022-08-21T15:11:24;6.85;;;1.70;;
52866;SDS011;38739;53.324;6.862;2022-08-21T15:13:56;5.97;;;1.83;;
52866;SDS011;38739;53.324;6.862;2022-08-21T15:16:26;8.30;;;2.00;;
52866;SDS011;38739;53.324;6.862;2022-08-21T15:18:52;8.93;;;1.90;;
52866;SDS011;38739;53.324;6.862;2022-08-21T15:21:18;6.72;;;1.83;;
52866;SDS011;38739;53.324;6.862;2022-08-21T15:23:44;5.93;;;1.65;;
52866;SDS011;38739;53.324;6.862;2022-08-21T15:26:10;5.82;;;1.92;;
52866;SDS011;38739;53.324;6.862;2022-08-21T15:28:35;6.53;;;2.05;;
52866;SDS011;38739;53.324;6.862;2022-08-21T15:31:03;7.65;;;1.90;;
52866;SDS011;38739;53.324;6.862;2022-08-21T15:33:29;6.85;;;1.85;;
52866;SDS011;38739;53.324;6.862;2022-08-21T15:35:55;7.28;;;1.80;;
52866;SDS011;38739;53.324;6.862;2022-08-21T15:38:21;7.78;;;1.80;;
52866;SDS011;38739;53.324;6.862;2022-08-21T15:40:47;6.63;;;1.95;;
52866;SDS011;38739;53.324;6.862;2022-08-21T15:43:19;7.82;;;1.90;;
52866;SDS011;38739;53.324;6.862;2022-08-21T15:45:50;6.15;;;1.60;;
52866;SDS011;38739;53.324;6.862;2022-08-21T15:48:17;8.25;;;2.35;;
52866;SDS011;38739;53.324;6.862;2022-08-21T15:50:42;10.73;;;2.50;;
52866;SDS011;38739;53.324;6.862;2022-08-21T15:53:08;8.10;;;2.10;;
52866;SDS011;38739;53.324;6.862;2022-08-21T15:55:34;6.90;;;1.90;;
52866;SDS011;38739;53.324;6.862;2022-08-21T15:58:00;6.68;;;1.80;;
52866;SDS011;38739;53.324;6.862;2022-08-21T16:00:26;6.55;;;2.10;;
52866;SDS011;38739;53.324;6.862;2022-08-21T16:02:53;8.38;;;1.70;;
52866;SDS011;38739;53.324;6.862;2022-08-21T16:05:22;7.75;;;1.92;;
52866;SDS011;38739;53.324;6.862;2022-08-21T16:07:48;8.13;;;2.40;;
52866;SDS011;38739;53.324;6.862;2022-08-21T16:10:16;6.95;;;2.10;;